Weather at D and B Airpark

Public forecast

Using degrees Fahrenheit for public forecast. Weather courtesy of forecast.io.

Closest aviation weather report (METAR) to D and B Airpark

Closest report is Sanderson Field, 18.6 nm (34.4 km) NNE.

2024/05/28 12:53 (retrieved 38 minutes ago)

KSHN 281253Z AUTO 25012KT 10SM FEW060 OVC085 10/07 A3003 RMK AO2 SLP171 T01000072

Closest aviation forecast (TAF) to D and B Airpark

Closest forecast is Olympia Regional Airport, 19.8 nm (36.7 km) E.

2024/05/28 12:27 (retrieved 1 hour ago)

TAF KOLM 281125Z 2812/2912 19006KT P6SM -RA BKN025 OVC040 FM281400 19006KT P6SM -RA SCT015 OVC025 FM281900 21011KT P6SM VCSH BKN025 BKN045 FM282200 24008KT P6SM BKN040 FM290000 21008KT P6SM SCT050 FM290600 20006KT P6SM BKN050